Terminal Aerodrome Forecast
Issued by NWS

Home | Current Version | Previous Version | Text Only | Print | Product List | Glossary On
Versions: 1 2 3 4 5 6 7 8 9 10 11 12 13 14 15 16 17 18 19 20 21
000
FTUS43 KIND 220800 AAA
TAFBMG
TAF AMD
KBMG 220822Z 2208/2306 12006KT P6SM BKN080
     FM221500 13010KT P6SM BKN020
     FM221800 12010KT P6SM -RA BKN020
     FM230000 13013KT 4SM -RA OVC015
     FM230300 14013KT 2SM -RA BR OVC007
      AMD LTD TO CLD VIS AND WIND TIL 221400=

USA.gov is the U.S. government's official web portal to all federal, state and local government web resources and services.